createdAt,value
2022-08-24T00:00:57.556Z,48.11
2022-08-24T00:01:57.595Z,49.61
2022-08-24T00:02:57.710Z,50.91
2022-08-24T00:03:57.510Z,49.98
2022-08-24T00:04:57.509Z,49.37
2022-08-24T00:05:57.516Z,49.87
2022-08-24T00:06:57.495Z,46.17
2022-08-24T00:07:57.556Z,48.44
2022-08-24T00:08:57.486Z,51.40
2022-08-24T00:09:57.479Z,49.53
2022-08-24T00:10:57.471Z,49.56
2022-08-24T00:11:57.478Z,51.85
2022-08-24T00:12:57.446Z,46.79
2022-08-24T00:13:57.448Z,47.62
2022-08-24T00:14:57.449Z,49.02
2022-08-24T00:15:57.438Z,50.26
2022-08-24T00:16:57.501Z,45.52
2022-08-24T00:17:57.479Z,44.79
2022-08-24T00:18:57.414Z,47.48
2022-08-24T00:19:57.406Z,48.06
2022-08-24T00:20:57.402Z,49.78
2022-08-24T00:21:57.407Z,47.82
2022-08-24T00:22:57.386Z,48.32
2022-08-24T00:23:57.378Z,49.70
2022-08-24T00:24:57.378Z,48.72
2022-08-24T00:25:57.367Z,48.95
2022-08-24T00:26:57.370Z,47.71
2022-08-24T00:27:58.484Z,49.34
2022-08-24T00:28:57.355Z,45.64
2022-08-24T00:29:57.348Z,48.40
2022-08-24T00:30:57.333Z,51.72
2022-08-24T00:31:57.364Z,47.83
2022-08-24T00:32:57.330Z,51.58
2022-08-24T00:33:57.317Z,54.00
2022-08-24T00:34:58.728Z,47.17
2022-08-24T00:35:57.310Z,50.75
2022-08-24T00:36:57.297Z,50.98
2022-08-24T00:37:57.363Z,53.37
2022-08-24T00:38:57.284Z,55.39
2022-08-24T00:39:57.418Z,54.27
2022-08-24T00:40:57.275Z,52.03
2022-08-24T00:41:57.265Z,50.75
2022-08-24T00:42:57.266Z,53.79
2022-08-24T00:43:57.250Z,53.05
2022-08-24T00:44:57.270Z,50.30
2022-08-24T00:45:57.301Z,53.45
2022-08-24T00:46:57.226Z,56.33
2022-08-24T00:47:57.218Z,53.89
2022-08-24T00:48:57.214Z,51.17
2022-08-24T00:49:58.242Z,49.02
2022-08-24T00:50:57.206Z,52.59
2022-08-24T00:51:57.198Z,49.13
2022-08-24T00:52:57.183Z,51.36
2022-08-24T00:53:57.187Z,49.95
2022-08-24T00:54:57.189Z,52.19
2022-08-24T00:55:57.356Z,54.02
2022-08-24T00:56:57.162Z,52.76
2022-08-24T00:57:57.206Z,48.74
2022-08-24T00:58:57.396Z,51.08
2022-08-24T00:59:57.180Z,53.46
2022-08-24T01:00:57.187Z,47.97
2022-08-24T01:01:57.170Z,51.62
2022-08-24T01:02:57.121Z,53.27
2022-08-24T01:03:57.322Z,51.13
2022-08-24T01:04:57.126Z,53.81
2022-08-24T01:05:57.117Z,53.75
2022-08-24T01:06:57.102Z,52.57
2022-08-24T01:07:57.152Z,53.48
2022-08-24T01:08:57.093Z,52.14
2022-08-24T01:09:57.095Z,51.62
2022-08-24T01:10:57.062Z,50.25
2022-08-24T01:11:58.069Z,51.09
2022-08-24T01:13:00.477Z,53.14
2022-08-24T01:13:57.050Z,50.78
2022-08-24T01:14:57.042Z,50.60
2022-08-24T01:15:57.065Z,49.55
2022-08-24T01:16:57.018Z,48.78
2022-08-24T01:17:57.027Z,52.24
2022-08-24T01:18:57.018Z,55.71
2022-08-24T01:19:56.993Z,50.78
2022-08-24T01:20:57.013Z,52.84
2022-08-24T01:21:57.002Z,53.57
2022-08-24T01:22:56.985Z,48.08
2022-08-24T01:23:56.985Z,49.46
2022-08-24T01:24:56.978Z,55.85
2022-08-24T01:25:56.994Z,47.51
2022-08-24T01:26:56.953Z,47.29
2022-08-24T01:27:57.014Z,49.18
2022-08-24T01:28:56.955Z,49.02
2022-08-24T01:29:56.936Z,55.89
2022-08-24T01:30:56.953Z,53.99
2022-08-24T01:31:56.918Z,53.06
2022-08-24T01:32:56.917Z,46.93
2022-08-24T01:33:56.917Z,54.44
2022-08-24T01:34:56.896Z,54.65
2022-08-24T01:35:56.902Z,51.90
2022-08-24T01:36:56.905Z,53.41
2022-08-24T01:37:56.909Z,51.86
2022-08-24T01:38:56.877Z,52.50
2022-08-24T01:39:56.911Z,53.71
2022-08-24T01:40:56.849Z,52.42
2022-08-24T01:41:56.882Z,55.70
2022-08-24T01:42:56.846Z,56.36
2022-08-24T01:43:56.829Z,52.50
2022-08-24T01:44:56.817Z,51.60
2022-08-24T01:45:56.826Z,52.36
2022-08-24T01:46:56.865Z,51.67
2022-08-24T01:47:56.843Z,53.45
2022-08-24T01:48:56.801Z,53.88
2022-08-24T01:49:56.797Z,57.07
2022-08-24T01:50:56.781Z,54.29
2022-08-24T01:51:56.791Z,51.28
2022-08-24T01:53:05.659Z,52.45
2022-08-24T01:53:58.780Z,52.51
2022-08-24T01:54:56.766Z,53.70
2022-08-24T01:55:56.749Z,49.32
2022-08-24T01:56:56.761Z,52.51
2022-08-24T01:57:56.732Z,51.52
2022-08-24T01:58:56.729Z,53.06
2022-08-24T01:59:56.725Z,50.46
2022-08-24T02:00:56.717Z,54.20
2022-08-24T02:01:56.804Z,53.63
2022-08-24T02:02:56.746Z,50.07
2022-08-24T02:03:56.681Z,51.29
2022-08-24T02:04:56.680Z,51.15
2022-08-24T02:05:56.679Z,48.03
2022-08-24T02:06:56.669Z,52.17
2022-08-24T02:07:56.693Z,50.09
2022-08-24T02:08:56.650Z,54.02
2022-08-24T02:09:56.653Z,52.86
2022-08-24T02:10:57.177Z,53.20
2022-08-24T02:11:56.620Z,51.15
2022-08-24T02:12:56.752Z,52.35
2022-08-24T02:13:56.640Z,52.34
2022-08-24T02:14:56.614Z,52.43
2022-08-24T02:15:56.645Z,50.40
2022-08-24T02:16:56.600Z,53.91
2022-08-24T02:17:56.585Z,51.25
2022-08-24T02:18:56.589Z,54.39
2022-08-24T02:19:56.576Z,50.35
2022-08-24T02:20:56.572Z,52.15
2022-08-24T02:21:56.561Z,51.23
2022-08-24T02:22:56.666Z,49.35
2022-08-24T02:23:56.550Z,53.42
2022-08-24T02:24:56.541Z,54.73
2022-08-24T02:25:56.537Z,53.12
2022-08-24T02:26:56.527Z,51.74
2022-08-24T02:27:56.521Z,51.14
2022-08-24T02:28:56.544Z,54.34
2022-08-24T02:29:56.492Z,53.20
2022-08-24T02:30:56.609Z,51.07
2022-08-24T02:31:56.494Z,52.16
2022-08-24T02:32:56.476Z,50.59
2022-08-24T02:33:56.495Z,53.73
2022-08-24T02:34:56.473Z,52.50
2022-08-24T02:35:56.469Z,49.57
2022-08-24T02:36:56.455Z,50.69
2022-08-24T02:37:56.449Z,51.66
2022-08-24T02:38:56.442Z,52.22
2022-08-24T02:39:56.470Z,54.38
2022-08-24T02:40:56.448Z,53.01
2022-08-24T02:41:56.420Z,54.83
2022-08-24T02:42:56.409Z,54.09
2022-08-24T02:43:56.416Z,55.42
2022-08-24T02:44:56.389Z,52.49
2022-08-24T02:45:56.425Z,54.34
2022-08-24T02:46:56.405Z,54.67
2022-08-24T02:47:56.377Z,51.49
2022-08-24T02:48:57.562Z,53.32
2022-08-24T02:49:57.360Z,53.81
2022-08-24T02:50:56.365Z,56.97
2022-08-24T02:51:56.340Z,52.05
2022-08-24T02:52:56.578Z,52.43
2022-08-24T02:53:56.333Z,55.41
2022-08-24T02:54:56.320Z,56.49
2022-08-24T02:55:56.318Z,57.37
2022-08-24T02:56:56.320Z,56.02
2022-08-24T02:57:56.292Z,56.52
2022-08-24T02:58:56.293Z,53.46
2022-08-24T02:59:56.292Z,58.09
2022-08-24T03:00:56.276Z,56.73
2022-08-24T03:01:56.308Z,58.42
2022-08-24T03:02:56.322Z,56.18
2022-08-24T03:03:56.264Z,54.53
2022-08-24T03:04:56.248Z,54.89
2022-08-24T03:05:56.244Z,55.97
2022-08-24T03:06:56.256Z,55.85
2022-08-24T03:07:56.228Z,53.48
2022-08-24T03:08:56.884Z,56.84
2022-08-24T03:09:56.220Z,55.20
2022-08-24T03:10:56.205Z,58.27
2022-08-24T03:11:56.201Z,58.35
2022-08-24T03:12:58.833Z,57.94
2022-08-24T03:13:56.188Z,59.78
2022-08-24T03:14:56.188Z,58.33
2022-08-24T03:15:56.194Z,60.69
2022-08-24T03:16:56.160Z,57.82
2022-08-24T03:17:56.216Z,56.00
2022-08-24T03:18:56.155Z,56.13
2022-08-24T03:19:56.132Z,57.11
2022-08-24T03:20:56.142Z,58.01
2022-08-24T03:21:56.133Z,57.84
2022-08-24T03:22:56.133Z,56.86
2022-08-24T03:23:56.132Z,57.00
2022-08-24T03:24:56.108Z,57.57
2022-08-24T03:25:56.101Z,57.52
2022-08-24T03:26:56.099Z,59.28
2022-08-24T03:27:56.098Z,59.66
2022-08-24T03:28:56.090Z,60.85
2022-08-24T03:29:56.080Z,58.11
2022-08-24T03:30:56.108Z,57.94
2022-08-24T03:31:56.064Z,58.53
2022-08-24T03:32:56.065Z,58.78
2022-08-24T03:33:56.048Z,59.14
2022-08-24T03:34:56.040Z,57.57
2022-08-24T03:35:56.028Z,58.21
2022-08-24T03:36:56.023Z,60.24
2022-08-24T03:37:56.020Z,59.27
2022-08-24T03:38:56.048Z,59.75
2022-08-24T03:39:56.057Z,59.51
2022-08-24T03:40:55.988Z,58.62
2022-08-24T03:41:55.984Z,60.56
2022-08-24T03:42:55.984Z,59.29
2022-08-24T03:43:56.000Z,58.95
2022-08-24T03:44:55.967Z,59.07
2022-08-24T03:45:56.011Z,60.67
2022-08-24T03:46:55.954Z,61.35
2022-08-24T03:47:55.948Z,59.61
2022-08-24T03:48:55.964Z,59.51
2022-08-24T03:49:55.940Z,60.28
2022-08-24T03:50:55.923Z,59.58
2022-08-24T03:51:55.916Z,60.58
2022-08-24T03:52:55.912Z,59.72
2022-08-24T03:53:55.920Z,58.65
2022-08-24T03:54:55.903Z,58.43
2022-08-24T03:55:55.892Z,58.99
2022-08-24T03:56:55.897Z,59.15
2022-08-24T03:57:55.875Z,59.96
2022-08-24T03:58:55.869Z,59.90
2022-08-24T03:59:55.873Z,58.69
2022-08-24T04:00:56.033Z,59.08
2022-08-24T04:01:55.916Z,59.64
2022-08-24T04:02:55.839Z,58.07
2022-08-24T04:03:55.827Z,58.15
2022-08-24T04:04:55.840Z,59.64
2022-08-24T04:05:55.813Z,58.73
2022-08-24T04:06:55.813Z,59.23
2022-08-24T04:07:55.799Z,59.68
2022-08-24T04:08:55.810Z,59.95
2022-08-24T04:09:55.789Z,60.68
2022-08-24T04:10:55.800Z,62.32
2022-08-24T04:11:55.767Z,61.02
2022-08-24T04:12:55.765Z,60.58
2022-08-24T04:13:55.756Z,60.55
2022-08-24T04:14:55.748Z,60.46
2022-08-24T04:15:55.767Z,60.27
2022-08-24T04:16:57.489Z,59.89
2022-08-24T04:17:55.732Z,62.43
2022-08-24T04:18:55.724Z,61.03
2022-08-24T04:19:55.712Z,60.41
2022-08-24T04:20:55.711Z,60.57
2022-08-24T04:21:55.712Z,61.37
2022-08-24T04:22:55.696Z,60.41
2022-08-24T04:23:55.684Z,59.51
2022-08-24T04:24:55.684Z,61.02
2022-08-24T04:25:55.671Z,61.26
2022-08-24T04:26:55.684Z,60.22
2022-08-24T04:27:55.659Z,60.39
2022-08-24T04:28:55.651Z,60.03
2022-08-24T04:29:55.635Z,59.80
2022-08-24T04:30:55.644Z,59.54
2022-08-24T04:31:55.696Z,59.48
2022-08-24T04:32:55.623Z,58.55
2022-08-24T04:33:55.615Z,59.86
2022-08-24T04:34:55.618Z,59.79
2022-08-24T04:35:55.623Z,59.46
2022-08-24T04:36:55.603Z,60.38
2022-08-24T04:37:55.579Z,59.69
2022-08-24T04:38:55.581Z,59.51
2022-08-24T04:39:55.607Z,59.89
2022-08-24T04:40:55.575Z,60.00
2022-08-24T04:41:55.552Z,59.96
2022-08-24T04:42:55.547Z,59.75
2022-08-24T04:43:55.576Z,59.12
2022-08-24T04:44:55.536Z,59.48
2022-08-24T04:45:55.567Z,59.82
2022-08-24T04:46:55.547Z,60.07
2022-08-24T04:47:55.531Z,60.06
2022-08-24T04:48:55.505Z,59.91
2022-08-24T04:49:55.499Z,59.90
2022-08-24T04:50:55.500Z,60.43
2022-08-24T04:51:55.515Z,58.81
2022-08-24T04:52:55.483Z,59.78
2022-08-24T04:53:55.474Z,59.58
2022-08-24T04:54:55.475Z,59.59
2022-08-24T04:55:55.471Z,58.91
2022-08-24T04:56:55.455Z,58.23
2022-08-24T04:57:55.456Z,59.09
2022-08-24T04:58:55.434Z,59.15
2022-08-24T04:59:55.436Z,58.31
2022-08-24T05:00:55.553Z,59.31
2022-08-24T05:01:55.487Z,60.41
2022-08-24T05:02:55.440Z,60.81
2022-08-24T05:03:55.405Z,59.99
2022-08-24T05:04:55.391Z,60.36
2022-08-24T05:05:55.383Z,62.26
2022-08-24T05:06:55.383Z,61.53
2022-08-24T05:07:56.669Z,61.64
2022-08-24T05:08:56.380Z,62.27
2022-08-24T05:09:55.355Z,61.65
2022-08-24T05:10:55.358Z,60.88
2022-08-24T05:11:55.348Z,62.76
2022-08-24T05:12:55.343Z,62.61
2022-08-24T05:13:55.340Z,61.28
2022-08-24T05:14:55.341Z,60.93
2022-08-24T05:15:55.353Z,61.07
2022-08-24T05:16:55.429Z,63.21
2022-08-24T05:17:55.318Z,61.83
2022-08-24T05:18:55.337Z,61.91
2022-08-24T05:19:55.291Z,62.32
2022-08-24T05:20:55.287Z,60.76
2022-08-24T05:21:55.271Z,61.60
2022-08-24T05:23:01.198Z,59.61
2022-08-24T05:23:57.275Z,59.90
2022-08-24T05:24:55.255Z,60.22
2022-08-24T05:25:55.247Z,59.85
2022-08-24T05:26:55.239Z,58.83
2022-08-24T05:27:55.234Z,58.72
2022-08-24T05:28:55.227Z,58.86
2022-08-24T05:29:55.211Z,60.11
2022-08-24T05:30:55.203Z,59.62
2022-08-24T05:31:55.199Z,59.83
2022-08-24T05:32:55.192Z,59.62
2022-08-24T05:33:55.199Z,59.14
2022-08-24T05:34:55.178Z,57.70
2022-08-24T05:35:55.179Z,58.47
2022-08-24T05:36:55.167Z,59.23
2022-08-24T05:37:55.179Z,59.37
2022-08-24T05:38:55.247Z,59.25
2022-08-24T05:39:55.407Z,58.95
2022-08-24T05:40:55.142Z,58.28
2022-08-24T05:41:55.111Z,58.59
2022-08-24T05:42:55.124Z,57.66
2022-08-24T05:43:55.111Z,57.27
2022-08-24T05:44:55.115Z,57.38
2022-08-24T05:45:55.095Z,58.07
2022-08-24T05:46:55.178Z,59.39
2022-08-24T05:47:55.091Z,58.93
2022-08-24T05:48:55.087Z,58.32
2022-08-24T05:49:55.072Z,58.71
2022-08-24T05:50:55.073Z,62.93
2022-08-24T05:51:55.043Z,61.67
2022-08-24T05:52:55.043Z,55.27
2022-08-24T05:53:55.024Z,57.00
2022-08-24T05:54:55.031Z,56.76
2022-08-24T05:55:55.042Z,55.37
2022-08-24T05:56:55.008Z,57.63
2022-08-24T05:57:54.999Z,56.28
2022-08-24T05:58:55.003Z,57.24
2022-08-24T05:59:54.996Z,56.39
2022-08-24T06:00:54.987Z,55.02
2022-08-24T06:01:55.085Z,55.48
2022-08-24T06:02:55.049Z,55.90
2022-08-24T06:03:54.962Z,55.51
2022-08-24T06:04:54.954Z,57.58
2022-08-24T06:05:55.073Z,59.09
2022-08-24T06:06:54.943Z,67.98
2022-08-24T06:07:54.937Z,73.76
2022-08-24T06:08:54.960Z,62.57
2022-08-24T06:09:54.914Z,61.44
2022-08-24T06:10:54.971Z,72.40
2022-08-24T06:11:54.915Z,61.46
2022-08-24T06:12:54.944Z,58.95
2022-08-24T06:13:56.331Z,59.81
2022-08-24T06:14:54.897Z,59.58
2022-08-24T06:16:19.594Z,57.04
2022-08-24T06:16:57.250Z,57.46
2022-08-24T06:17:54.888Z,56.58
2022-08-24T06:18:54.846Z,55.88
2022-08-24T06:19:54.846Z,57.07
2022-08-24T06:20:57.945Z,56.81
2022-08-24T06:21:54.835Z,56.58
2022-08-24T06:22:54.856Z,57.07
2022-08-24T06:23:54.823Z,66.88
2022-08-24T06:24:54.811Z,57.71
2022-08-24T06:25:54.811Z,56.86
2022-08-24T06:26:54.795Z,57.26
2022-08-24T06:27:54.800Z,57.41
2022-08-24T06:28:54.800Z,57.09
2022-08-24T06:29:54.779Z,55.82
2022-08-24T06:30:54.825Z,57.65
2022-08-24T06:31:56.137Z,55.58
2022-08-24T06:32:54.788Z,56.07
2022-08-24T06:33:54.746Z,55.60
2022-08-24T06:34:54.744Z,55.42
2022-08-24T06:35:54.734Z,55.69
2022-08-24T06:36:54.729Z,55.67
2022-08-24T06:37:54.719Z,57.29
2022-08-24T06:38:54.752Z,56.76
2022-08-24T06:39:54.863Z,55.47
2022-08-24T06:40:54.694Z,55.25
2022-08-24T06:41:54.699Z,56.81
2022-08-24T06:42:54.689Z,55.98
2022-08-24T06:43:54.691Z,56.22
2022-08-24T06:44:54.681Z,55.50
2022-08-24T06:45:54.663Z,57.38
2022-08-24T06:46:54.688Z,57.01
2022-08-24T06:47:54.659Z,55.46
2022-08-24T06:48:54.659Z,54.08
2022-08-24T06:49:54.639Z,55.39
2022-08-24T06:50:54.640Z,56.42
2022-08-24T06:51:54.632Z,56.76
2022-08-24T06:52:54.613Z,53.85
2022-08-24T06:53:54.630Z,57.54
2022-08-24T06:54:54.607Z,54.94
2022-08-24T06:55:54.621Z,56.13
2022-08-24T06:56:54.583Z,53.99
2022-08-24T06:57:54.586Z,54.87
2022-08-24T06:58:54.579Z,55.83
2022-08-24T06:59:54.588Z,56.66
2022-08-24T07:00:55.562Z,56.07
2022-08-24T07:01:54.602Z,54.30
2022-08-24T07:02:54.599Z,56.11
2022-08-24T07:03:54.552Z,54.33
2022-08-24T07:04:54.595Z,53.91
2022-08-24T07:05:54.531Z,55.20
2022-08-24T07:06:55.536Z,55.47
2022-08-24T07:07:54.527Z,54.48
2022-08-24T07:08:54.519Z,55.66
2022-08-24T07:09:54.531Z,55.11
2022-08-24T07:10:54.495Z,54.86
2022-08-24T07:11:54.495Z,54.07
2022-08-24T07:12:54.494Z,54.65
2022-08-24T07:13:54.483Z,54.27
2022-08-24T07:14:54.484Z,53.35
2022-08-24T07:15:54.499Z,54.46
2022-08-24T07:16:54.466Z,53.30
2022-08-24T07:17:54.443Z,55.56
2022-08-24T07:18:54.482Z,54.88
2022-08-24T07:19:54.456Z,53.70
2022-08-24T07:20:54.444Z,55.86
2022-08-24T07:21:54.439Z,54.09
2022-08-24T07:22:54.467Z,53.80
2022-08-24T07:23:54.406Z,54.75
2022-08-24T07:24:54.398Z,55.93
2022-08-24T07:25:57.104Z,54.52
2022-08-24T07:26:55.392Z,55.97
2022-08-24T07:27:54.375Z,55.96
2022-08-24T07:28:54.408Z,55.19
2022-08-24T07:30:10.278Z,56.83
2022-08-24T07:30:56.400Z,54.35
2022-08-24T07:31:54.355Z,55.91
2022-08-24T07:32:54.354Z,53.80
2022-08-24T07:33:54.353Z,55.29
2022-08-24T07:34:54.338Z,55.00
2022-08-24T07:35:55.086Z,54.52
2022-08-24T07:36:54.359Z,54.41
2022-08-24T07:37:54.322Z,54.34
2022-08-24T07:38:54.311Z,53.06
2022-08-24T07:39:54.323Z,54.78
2022-08-24T07:41:20.227Z,53.83
2022-08-24T07:42:11.946Z,55.16
2022-08-24T07:42:56.282Z,55.00
2022-08-24T07:43:54.274Z,53.15
2022-08-24T07:44:54.266Z,53.57
2022-08-24T07:45:54.332Z,53.34
2022-08-24T07:46:54.292Z,53.98
2022-08-24T07:47:55.833Z,53.45
2022-08-24T07:49:05.118Z,53.65
2022-08-24T07:49:56.230Z,54.50
2022-08-24T07:50:54.223Z,55.58
2022-08-24T07:51:54.251Z,53.37
2022-08-24T07:52:54.238Z,52.04
2022-08-24T07:53:54.610Z,53.61
2022-08-24T07:54:55.230Z,55.02
2022-08-24T07:55:54.215Z,56.60
2022-08-24T07:56:54.191Z,52.78
2022-08-24T07:57:54.182Z,52.25
2022-08-24T07:58:54.392Z,54.61
2022-08-24T07:59:54.178Z,53.49
2022-08-24T08:00:54.158Z,54.88
2022-08-24T08:01:54.228Z,52.26
2022-08-24T08:02:54.174Z,52.88
2022-08-24T08:03:54.137Z,52.86
2022-08-24T08:04:54.130Z,52.67
2022-08-24T08:05:54.124Z,55.35
2022-08-24T08:06:54.119Z,54.08
2022-08-24T08:07:54.132Z,52.99
2022-08-24T08:08:54.103Z,54.52
2022-08-24T08:09:54.102Z,54.64
2022-08-24T08:10:54.095Z,54.14
2022-08-24T08:11:54.086Z,52.29
2022-08-24T08:12:54.098Z,50.78
2022-08-24T08:13:55.072Z,53.22
2022-08-24T08:14:54.067Z,52.87
2022-08-24T08:15:56.779Z,51.78
2022-08-24T08:16:55.049Z,52.75
2022-08-24T08:17:55.953Z,52.47
2022-08-24T08:19:09.360Z,52.73
2022-08-24T08:19:56.054Z,52.61
2022-08-24T08:20:54.019Z,51.65
2022-08-24T08:21:54.023Z,52.78
2022-08-24T08:22:54.004Z,50.11
2022-08-24T08:23:55.007Z,51.42
2022-08-24T08:24:54.074Z,51.39
2022-08-24T08:25:54.004Z,50.50
2022-08-24T08:26:53.994Z,51.58
2022-08-24T08:27:53.990Z,52.81
2022-08-24T08:28:53.979Z,52.30
2022-08-24T08:29:53.976Z,51.06
2022-08-24T08:30:54.097Z,50.12
2022-08-24T08:31:53.956Z,51.05
2022-08-24T08:32:53.946Z,53.09
2022-08-24T08:33:53.946Z,55.10
2022-08-24T08:34:55.258Z,52.58
2022-08-24T08:35:53.959Z,57.44
2022-08-24T08:36:53.923Z,51.37
2022-08-24T08:37:53.920Z,50.53
2022-08-24T08:38:53.910Z,51.26
2022-08-24T08:39:53.933Z,50.63
2022-08-24T08:40:53.927Z,50.91
2022-08-24T08:41:53.914Z,50.52
2022-08-24T08:42:53.890Z,52.83
2022-08-24T08:43:53.873Z,53.86
2022-08-24T08:44:53.881Z,51.51
2022-08-24T08:45:53.934Z,51.76
2022-08-24T08:46:53.874Z,51.47
2022-08-24T08:47:53.899Z,52.07
2022-08-24T08:48:53.851Z,48.42
2022-08-24T08:49:53.838Z,50.92
2022-08-24T08:50:53.899Z,50.26
2022-08-24T08:51:53.877Z,51.22
2022-08-24T08:52:53.849Z,50.84
2022-08-24T08:53:53.886Z,51.32
2022-08-24T08:54:53.910Z,51.30
2022-08-24T08:55:53.805Z,51.32
2022-08-24T08:56:58.585Z,50.71
2022-08-24T08:57:55.850Z,50.02
2022-08-24T08:58:57.215Z,50.47
2022-08-24T08:59:53.778Z,50.38
2022-08-24T09:00:53.773Z,47.06
2022-08-24T09:01:53.803Z,50.45
2022-08-24T09:02:53.782Z,48.21
2022-08-24T09:03:53.845Z,50.79
2022-08-24T09:04:53.943Z,50.07
2022-08-24T09:06:53.738Z,49.09
2022-08-24T09:07:53.738Z,49.46
2022-08-24T09:08:53.725Z,46.69
2022-08-24T09:09:53.729Z,48.59
2022-08-24T09:10:53.725Z,48.72
2022-08-24T09:11:53.709Z,48.20
2022-08-24T09:12:53.701Z,49.05
2022-08-24T09:13:53.706Z,51.20
2022-08-24T09:14:53.702Z,51.46
2022-08-24T09:15:57.659Z,51.18
2022-08-24T09:16:53.863Z,49.62
2022-08-24T09:17:53.688Z,51.15
2022-08-24T09:18:53.719Z,49.22
2022-08-24T09:19:53.692Z,47.26
2022-08-24T09:20:53.658Z,50.10
2022-08-24T09:21:54.543Z,49.54
2022-08-24T09:22:53.648Z,50.66
2022-08-24T09:23:53.641Z,50.68
2022-08-24T09:24:53.642Z,49.89
2022-08-24T09:25:53.657Z,50.68
2022-08-24T09:26:53.625Z,50.44
2022-08-24T09:27:53.631Z,50.99
2022-08-24T09:28:53.617Z,50.41
2022-08-24T09:29:53.625Z,49.64
2022-08-24T09:30:53.665Z,48.84
2022-08-24T09:31:53.609Z,50.31
2022-08-24T09:32:53.618Z,48.65
2022-08-24T09:33:53.593Z,47.94
2022-08-24T09:34:53.581Z,48.80
2022-08-24T09:35:53.585Z,49.93
2022-08-24T09:36:53.577Z,50.89
2022-08-24T09:37:53.596Z,49.76
2022-08-24T09:38:53.569Z,46.67
2022-08-24T09:39:53.598Z,45.19
2022-08-24T09:40:53.550Z,46.04
2022-08-24T09:41:53.551Z,47.53
2022-08-24T09:42:53.541Z,46.19
2022-08-24T09:43:53.557Z,46.13
2022-08-24T09:44:53.558Z,48.55
2022-08-24T09:45:53.699Z,47.76
2022-08-24T09:46:53.546Z,46.95
2022-08-24T09:47:53.517Z,46.84
2022-08-24T09:48:54.533Z,46.50
2022-08-24T09:49:53.515Z,46.83
2022-08-24T09:50:53.501Z,48.61
2022-08-24T09:51:53.505Z,47.13
2022-08-24T09:52:53.499Z,47.79
2022-08-24T09:53:53.501Z,47.07
2022-08-24T09:54:53.494Z,46.52
2022-08-24T09:55:53.519Z,47.30
2022-08-24T09:56:59.864Z,48.57
2022-08-24T09:58:00.920Z,47.35
2022-08-24T09:58:55.466Z,47.77
2022-08-24T09:59:53.482Z,51.68
2022-08-24T10:00:54.512Z,48.19
2022-08-24T10:01:53.476Z,46.80
2022-08-24T10:02:53.470Z,48.62
2022-08-24T10:03:53.439Z,48.93
2022-08-24T10:04:53.514Z,46.73
2022-08-24T10:05:53.675Z,45.66
2022-08-24T10:06:53.427Z,44.66
2022-08-24T10:07:53.416Z,45.68
2022-08-24T10:08:53.423Z,46.35
2022-08-24T10:09:53.405Z,47.18
2022-08-24T10:10:53.408Z,43.95
2022-08-24T10:11:53.409Z,44.57
2022-08-24T10:12:56.358Z,46.59
2022-08-24T10:13:54.401Z,47.54
2022-08-24T10:14:53.396Z,46.12
2022-08-24T10:15:53.381Z,45.52
2022-08-24T10:16:53.457Z,45.44
2022-08-24T10:17:53.385Z,47.77
2022-08-24T10:18:53.373Z,46.22
2022-08-24T10:19:53.371Z,46.98
2022-08-24T10:20:53.359Z,45.98
2022-08-24T10:21:53.376Z,45.67
2022-08-24T10:22:53.344Z,43.80
2022-08-24T10:23:53.360Z,47.76
2022-08-24T10:24:53.344Z,48.32
2022-08-24T10:25:53.337Z,46.93
2022-08-24T10:26:53.348Z,45.67
2022-08-24T10:27:53.339Z,47.22
2022-08-24T10:28:53.321Z,47.59
2022-08-24T10:29:53.316Z,47.91
2022-08-24T10:30:53.311Z,46.01
2022-08-24T10:31:53.480Z,47.64
2022-08-24T10:32:53.307Z,45.56
2022-08-24T10:33:53.291Z,44.89
2022-08-24T10:34:53.279Z,47.10
2022-08-24T10:35:53.289Z,49.05
2022-08-24T10:36:53.283Z,45.74
2022-08-24T10:37:53.280Z,47.24
2022-08-24T10:38:53.288Z,47.80
2022-08-24T10:39:53.323Z,45.97
2022-08-24T10:40:53.267Z,47.52
2022-08-24T10:41:53.258Z,47.48
2022-08-24T10:42:53.252Z,49.03
2022-08-24T10:43:53.256Z,49.58
2022-08-24T10:44:53.260Z,48.23
2022-08-24T10:45:53.270Z,47.57
2022-08-24T10:46:58.491Z,46.16
2022-08-24T10:47:55.232Z,46.74
2022-08-24T10:48:53.219Z,47.29
2022-08-24T10:49:53.227Z,47.02
2022-08-24T10:50:53.233Z,47.20
2022-08-24T10:51:53.220Z,46.66
2022-08-24T10:52:53.211Z,44.36
2022-08-24T10:53:53.203Z,47.36
2022-08-24T10:54:53.202Z,44.64
2022-08-24T10:55:53.219Z,46.17
2022-08-24T10:56:53.195Z,46.95
2022-08-24T10:57:53.192Z,46.22
2022-08-24T10:58:53.180Z,47.62
2022-08-24T10:59:53.240Z,48.76
2022-08-24T11:00:53.225Z,45.96
2022-08-24T11:01:53.247Z,47.84
2022-08-24T11:02:53.169Z,47.72
2022-08-24T11:03:53.180Z,47.45
2022-08-24T11:04:53.163Z,46.82
2022-08-24T11:05:53.163Z,46.14
2022-08-24T11:06:53.180Z,44.90
2022-08-24T11:07:53.147Z,42.35
2022-08-24T11:08:53.159Z,43.60
2022-08-24T11:09:53.143Z,44.03
2022-08-24T11:10:53.140Z,45.35
2022-08-24T11:11:53.141Z,45.23
2022-08-24T11:12:53.137Z,45.26
2022-08-24T11:13:53.145Z,46.89
2022-08-24T11:14:53.130Z,45.04
2022-08-24T11:15:53.131Z,45.61
2022-08-24T11:16:57.474Z,45.53
2022-08-24T11:17:54.117Z,46.41
2022-08-24T11:18:53.133Z,44.72
2022-08-24T11:19:53.109Z,45.40
2022-08-24T11:20:53.105Z,45.56
2022-08-24T11:21:53.105Z,46.98
2022-08-24T11:22:53.113Z,46.37
2022-08-24T11:23:53.106Z,44.91
2022-08-24T11:24:53.098Z,46.41
2022-08-24T11:25:53.097Z,44.78
2022-08-24T11:26:53.560Z,48.45
2022-08-24T11:27:53.072Z,48.14
2022-08-24T11:28:53.070Z,47.70
2022-08-24T11:29:53.062Z,44.86
2022-08-24T11:30:53.070Z,45.72
2022-08-24T11:31:53.116Z,46.09
2022-08-24T11:32:53.049Z,46.25
2022-08-24T11:33:53.056Z,45.98
2022-08-24T11:34:53.050Z,45.23
2022-08-24T11:35:53.034Z,46.25
2022-08-24T11:36:53.056Z,47.22
2022-08-24T11:37:53.033Z,46.37
2022-08-24T11:38:53.033Z,45.60
2022-08-24T11:39:53.076Z,46.66
2022-08-24T11:40:53.026Z,47.33
2022-08-24T11:41:53.029Z,46.29
2022-08-24T11:42:53.037Z,47.69
2022-08-24T11:43:53.018Z,49.01
2022-08-24T11:44:53.010Z,47.10
2022-08-24T11:45:53.038Z,46.76
2022-08-24T11:46:53.083Z,43.78
2022-08-24T11:47:52.989Z,46.79
2022-08-24T11:48:52.997Z,47.04
2022-08-24T11:49:52.997Z,47.40
2022-08-24T11:50:52.989Z,47.51
2022-08-24T11:51:52.985Z,47.87
2022-08-24T11:52:53.006Z,49.26
2022-08-24T11:53:52.967Z,47.85
2022-08-24T11:54:52.973Z,48.74
2022-08-24T11:55:57.567Z,49.15
2022-08-24T11:56:53.965Z,45.39
2022-08-24T11:57:52.967Z,45.50
2022-08-24T11:58:52.950Z,44.94
2022-08-24T11:59:52.947Z,46.57
2022-08-24T12:00:52.937Z,47.48
2022-08-24T12:01:53.013Z,46.79
2022-08-24T12:02:53.006Z,47.14
2022-08-24T12:03:52.935Z,46.54
2022-08-24T12:04:52.927Z,47.30
2022-08-24T12:05:52.922Z,45.63
2022-08-24T12:06:55.639Z,47.01
2022-08-24T12:07:52.991Z,47.42
2022-08-24T12:08:52.910Z,49.33
2022-08-24T12:09:52.897Z,49.37
2022-08-24T12:10:52.892Z,47.25
2022-08-24T12:11:52.890Z,49.25
2022-08-24T12:12:52.883Z,48.26
2022-08-24T12:13:52.868Z,48.37
2022-08-24T12:14:52.881Z,50.06
2022-08-24T12:15:52.907Z,47.38
2022-08-24T12:16:52.885Z,48.79
2022-08-24T12:17:52.850Z,48.96
2022-08-24T12:18:52.852Z,47.86
2022-08-24T12:19:52.863Z,47.77
2022-08-24T12:20:52.843Z,49.38
2022-08-24T12:21:52.847Z,49.33
2022-08-24T12:22:52.822Z,46.55
2022-08-24T12:23:52.837Z,48.49
2022-08-24T12:24:52.811Z,47.84
2022-08-24T12:25:52.826Z,47.96
2022-08-24T12:26:52.810Z,49.86
2022-08-24T12:27:52.795Z,50.25
2022-08-24T12:28:54.666Z,49.17
2022-08-24T12:29:53.843Z,51.23
2022-08-24T12:30:52.776Z,47.87
2022-08-24T12:31:52.832Z,48.47
2022-08-24T12:32:52.777Z,50.65
2022-08-24T12:33:52.760Z,57.55
2022-08-24T12:34:54.937Z,47.33
2022-08-24T12:35:52.751Z,46.64
2022-08-24T12:36:52.760Z,47.96
2022-08-24T12:37:52.752Z,45.68
2022-08-24T12:38:52.749Z,46.66
2022-08-24T12:39:52.766Z,44.60
2022-08-24T12:40:52.760Z,45.20
2022-08-24T12:41:52.744Z,45.23
2022-08-24T12:42:52.951Z,48.28
2022-08-24T12:43:52.720Z,47.23
2022-08-24T12:44:52.719Z,46.02
2022-08-24T12:45:52.704Z,46.42
2022-08-24T12:46:52.711Z,45.99
2022-08-24T12:47:52.713Z,43.30
2022-08-24T12:48:54.928Z,43.98
2022-08-24T12:49:53.686Z,46.54
2022-08-24T12:50:52.718Z,44.25
2022-08-24T12:51:52.671Z,45.40
2022-08-24T12:52:52.699Z,45.80
2022-08-24T12:53:52.677Z,43.26